createdAt,value
2023-05-15T00:02:18.193Z,11.40
2023-05-15T00:04:45.055Z,11.43
2023-05-15T00:07:12.290Z,11.50
2023-05-15T00:09:41.615Z,11.44
2023-05-15T00:12:08.907Z,11.60
2023-05-15T00:14:36.347Z,11.61
2023-05-15T00:17:03.049Z,11.62
2023-05-15T00:19:30.191Z,11.64
2023-05-15T00:21:56.997Z,11.55
2023-05-15T00:24:23.923Z,11.61
2023-05-15T00:26:50.853Z,11.53
2023-05-15T00:29:17.643Z,11.52
2023-05-15T00:31:44.565Z,11.46
2023-05-15T00:34:11.340Z,11.48
2023-05-15T00:36:38.125Z,11.39
2023-05-15T00:39:06.017Z,11.27
2023-05-15T00:41:35.487Z,11.29
2023-05-15T00:44:03.164Z,11.39
2023-05-15T00:46:34.763Z,11.41
2023-05-15T00:49:05.258Z,11.32
2023-05-15T00:51:38.112Z,11.15
2023-05-15T00:54:05.768Z,11.15
2023-05-15T00:56:34.396Z,11.25
2023-05-15T00:59:04.146Z,11.31
2023-05-15T01:01:34.639Z,11.29
2023-05-15T01:04:02.993Z,11.22
2023-05-15T01:06:32.601Z,11.18
2023-05-15T01:09:02.128Z,11.22
2023-05-15T01:11:36.099Z,11.27
2023-05-15T01:14:06.348Z,11.06
2023-05-15T01:16:35.830Z,10.92
2023-05-15T01:19:04.207Z,10.76
2023-05-15T01:21:37.370Z,10.78
2023-05-15T01:24:50.807Z,10.80
2023-05-15T01:27:35.542Z,10.81
2023-05-15T01:30:23.614Z,10.88
2023-05-15T01:33:27.157Z,10.96
2023-05-15T01:36:07.953Z,10.89
2023-05-15T01:38:55.959Z,10.90
2023-05-15T01:41:29.856Z,11.04
2023-05-15T01:44:11.639Z,11.18
2023-05-15T01:46:48.612Z,11.18
2023-05-15T01:49:20.046Z,11.09
2023-05-15T01:51:51.579Z,10.99
2023-05-15T01:54:19.601Z,10.87
2023-05-15T01:56:46.554Z,10.87
2023-05-15T01:59:15.753Z,10.90
2023-05-15T02:01:45.532Z,10.97
2023-05-15T02:04:14.170Z,11.04
2023-05-15T02:06:41.516Z,11.04
2023-05-15T02:09:09.795Z,10.87
2023-05-15T02:11:37.618Z,10.86
2023-05-15T02:14:05.522Z,10.82
2023-05-15T02:16:32.407Z,10.85
2023-05-15T02:18:59.433Z,10.85
2023-05-15T02:21:26.308Z,10.89
2023-05-15T02:23:53.077Z,10.83
2023-05-15T02:26:35.579Z,10.78
2023-05-15T02:29:17.554Z,10.95
2023-05-15T02:32:29.185Z,11.06
2023-05-15T02:35:13.984Z,11.09
2023-05-15T02:37:47.966Z,11.10
2023-05-15T02:40:16.799Z,11.03
2023-05-15T02:42:49.314Z,11.04
2023-05-15T02:45:20.636Z,11.09
2023-05-15T02:47:50.435Z,11.03
2023-05-15T02:50:18.721Z,10.97
2023-05-15T02:52:48.160Z,11.09
2023-05-15T02:55:15.353Z,11.14
2023-05-15T02:57:42.279Z,11.11
2023-05-15T03:00:13.315Z,11.06
2023-05-15T03:02:40.065Z,11.03
2023-05-15T03:05:07.426Z,11.01
2023-05-15T03:07:34.702Z,11.08
2023-05-15T03:10:01.458Z,11.21
2023-05-15T03:12:28.440Z,11.28
2023-05-15T03:14:55.221Z,11.34
2023-05-15T03:17:23.126Z,11.34
2023-05-15T03:19:50.415Z,11.35
2023-05-15T03:22:17.217Z,11.39
2023-05-15T03:24:44.305Z,11.41
2023-05-15T03:27:11.154Z,11.41
2023-05-15T03:29:38.776Z,11.45
2023-05-15T03:32:05.984Z,11.44
2023-05-15T03:34:37.123Z,11.49
2023-05-15T03:37:03.910Z,11.51
2023-05-15T03:39:30.674Z,11.47
2023-05-15T03:41:57.361Z,11.33
2023-05-15T03:44:24.598Z,11.34
2023-05-15T03:46:52.588Z,11.42
2023-05-15T03:49:19.420Z,11.47
2023-05-15T03:51:46.224Z,11.49
2023-05-15T03:54:12.958Z,11.34
2023-05-15T03:56:39.836Z,11.32
2023-05-15T03:59:06.700Z,11.12
2023-05-15T04:01:37.689Z,11.06
2023-05-15T04:04:11.010Z,11.04
2023-05-15T04:06:37.985Z,11.05
2023-05-15T04:09:04.784Z,11.12
2023-05-15T04:11:31.704Z,11.13
2023-05-15T04:13:58.418Z,11.15
2023-05-15T04:16:25.229Z,11.07
2023-05-15T04:18:52.271Z,11.03
2023-05-15T04:21:19.369Z,11.08
2023-05-15T04:23:46.111Z,11.12
2023-05-15T04:26:13.037Z,11.11
2023-05-15T04:28:41.511Z,11.11
2023-05-15T04:31:13.832Z,11.14
2023-05-15T04:33:40.578Z,11.19
2023-05-15T04:36:08.705Z,11.16
2023-05-15T04:38:37.075Z,11.13
2023-05-15T04:41:03.841Z,11.15
2023-05-15T04:43:31.490Z,11.16
2023-05-15T04:45:58.446Z,11.20
2023-05-15T04:48:25.400Z,11.21
2023-05-15T04:50:52.335Z,11.24
2023-05-15T04:53:19.138Z,11.27
2023-05-15T04:55:46.601Z,11.46
2023-05-15T04:58:13.700Z,11.55
2023-05-15T05:00:40.902Z,11.71
2023-05-15T05:03:07.771Z,11.76
2023-05-15T05:05:34.610Z,11.76
2023-05-15T05:08:01.332Z,11.78
2023-05-15T05:10:28.055Z,11.79
2023-05-15T05:12:55.483Z,11.80
2023-05-15T05:15:22.502Z,11.81
2023-05-15T05:17:49.553Z,11.88
2023-05-15T05:20:16.330Z,11.93
2023-05-15T05:22:43.100Z,11.86
2023-05-15T05:25:10.246Z,11.79
2023-05-15T05:27:37.038Z,11.74
2023-05-15T05:30:04.340Z,11.75
2023-05-15T05:32:31.123Z,11.85
2023-05-15T05:34:57.888Z,11.91
2023-05-15T05:37:24.712Z,11.96
2023-05-15T05:39:51.766Z,12.07
2023-05-15T05:42:21.289Z,12.18
2023-05-15T05:44:48.075Z,12.26
2023-05-15T05:47:14.907Z,12.35
2023-05-15T05:49:47.102Z,12.39
2023-05-15T05:52:14.140Z,12.45
2023-05-15T05:54:41.394Z,12.54
2023-05-15T05:57:09.653Z,12.63
2023-05-15T05:59:37.293Z,12.73
2023-05-15T06:02:05.012Z,12.87
2023-05-15T06:04:34.102Z,12.98
2023-05-15T06:07:01.167Z,13.08
2023-05-15T06:09:28.097Z,13.13
2023-05-15T06:11:55.330Z,13.19
2023-05-15T06:14:22.106Z,13.27
2023-05-15T06:16:49.041Z,13.36
2023-05-15T06:19:16.209Z,13.41
2023-05-15T06:21:45.554Z,13.48
2023-05-15T06:24:14.093Z,13.55
2023-05-15T06:26:40.882Z,13.60
2023-05-15T06:29:07.850Z,13.66
2023-05-15T06:31:34.950Z,13.70
2023-05-15T06:34:01.833Z,13.75
2023-05-15T06:36:31.400Z,13.83
2023-05-15T06:38:58.195Z,13.87
2023-05-15T06:41:25.093Z,13.95
2023-05-15T06:43:51.851Z,13.99
2023-05-15T06:46:19.142Z,14.04
2023-05-15T06:48:47.175Z,14.10
2023-05-15T06:51:14.137Z,14.12
2023-05-15T06:53:42.244Z,14.17
2023-05-15T06:56:09.281Z,14.25
2023-05-15T06:58:36.095Z,14.33
2023-05-15T07:01:03.930Z,14.41
2023-05-15T07:03:30.966Z,14.52
2023-05-15T07:05:57.806Z,14.60
2023-05-15T07:08:24.715Z,14.69
2023-05-15T07:10:51.556Z,14.77
2023-05-15T07:13:20.658Z,14.86
2023-05-15T07:15:47.538Z,14.95
2023-05-15T07:18:14.458Z,15.12
2023-05-15T07:20:41.294Z,15.25
2023-05-15T07:23:07.999Z,15.22
2023-05-15T07:25:34.877Z,15.21
2023-05-15T07:28:01.728Z,15.23
2023-05-15T07:30:28.660Z,15.28
2023-05-15T07:32:55.925Z,15.34
2023-05-15T07:35:22.945Z,15.43
2023-05-15T07:37:49.869Z,15.52
2023-05-15T07:40:16.617Z,15.64
2023-05-15T07:42:46.988Z,15.77
2023-05-15T07:45:13.799Z,15.90
2023-05-15T07:47:49.035Z,16.02
2023-05-15T07:50:17.194Z,16.07
2023-05-15T07:52:44.933Z,16.10
2023-05-15T07:55:12.605Z,16.17
2023-05-15T07:57:42.263Z,16.22
2023-05-15T08:00:12.554Z,16.42
2023-05-15T08:02:40.914Z,16.56
2023-05-15T08:05:08.475Z,16.62
2023-05-15T08:07:35.575Z,16.62
2023-05-15T08:10:06.321Z,16.66
2023-05-15T08:12:33.791Z,16.78
2023-05-15T08:15:00.901Z,17.04
2023-05-15T08:17:27.989Z,17.08
2023-05-15T08:19:55.820Z,17.15
2023-05-15T08:22:22.716Z,17.36
2023-05-15T08:24:49.554Z,17.67
2023-05-15T08:27:16.556Z,17.98
2023-05-15T08:29:43.969Z,17.99
2023-05-15T08:32:10.916Z,17.95
2023-05-15T08:34:38.968Z,18.07
2023-05-15T08:37:06.793Z,18.21
2023-05-15T08:39:33.735Z,18.33
2023-05-15T08:42:34.554Z,18.37
2023-05-15T08:45:02.920Z,18.61
2023-05-15T08:47:36.848Z,18.94
2023-05-15T08:50:14.394Z,19.12
2023-05-15T08:52:45.404Z,19.06
2023-05-15T08:55:13.701Z,19.17
2023-05-15T08:57:41.211Z,19.20
2023-05-15T09:00:11.810Z,18.98
2023-05-15T09:02:39.780Z,18.87
2023-05-15T09:05:08.315Z,18.83
2023-05-15T09:07:35.895Z,18.81
2023-05-15T09:10:04.311Z,18.89
2023-05-15T09:12:34.775Z,18.67
2023-05-15T09:15:31.109Z,18.79
2023-05-15T09:17:59.145Z,18.94
2023-05-15T09:20:35.845Z,18.93
2023-05-15T09:23:06.035Z,18.98
2023-05-15T09:25:44.763Z,19.02
2023-05-15T09:28:29.647Z,18.97
2023-05-15T09:31:03.951Z,18.91
2023-05-15T09:33:37.606Z,19.04
2023-05-15T09:36:07.986Z,18.98
2023-05-15T09:38:42.666Z,18.78
2023-05-15T09:41:10.157Z,19.00
2023-05-15T09:43:40.221Z,19.35
2023-05-15T09:46:08.775Z,19.55
2023-05-15T09:48:35.899Z,19.63
2023-05-15T09:51:03.375Z,19.68
2023-05-15T09:53:31.768Z,19.50
2023-05-15T09:56:02.893Z,19.35
2023-05-15T09:58:30.170Z,19.61
2023-05-15T10:01:00.878Z,19.86
2023-05-15T10:03:27.755Z,20.36
2023-05-15T10:06:03.500Z,21.00
2023-05-15T10:08:30.500Z,20.84
2023-05-15T10:11:03.147Z,21.28
2023-05-15T10:13:31.759Z,21.76
2023-05-15T10:16:02.022Z,21.96
2023-05-15T10:18:33.613Z,21.96
2023-05-15T10:21:04.118Z,21.96
2023-05-15T10:23:34.670Z,22.26
2023-05-15T10:26:10.990Z,22.35
2023-05-15T10:28:38.978Z,22.56
2023-05-15T10:31:07.055Z,22.82
2023-05-15T10:33:36.627Z,22.38
2023-05-15T10:36:05.190Z,22.24
2023-05-15T10:38:34.179Z,22.23
2023-05-15T10:41:16.129Z,22.31
2023-05-15T10:43:44.376Z,22.79
2023-05-15T10:46:11.643Z,22.85
2023-05-15T10:48:40.230Z,22.34
2023-05-15T10:51:24.281Z,21.73
2023-05-15T10:53:52.013Z,21.36
2023-05-15T10:56:18.937Z,21.93
2023-05-15T10:58:54.937Z,22.02
2023-05-15T11:01:35.053Z,21.60
2023-05-15T11:04:17.545Z,21.51
2023-05-15T11:06:47.722Z,22.40
2023-05-15T11:09:34.648Z,22.72
2023-05-15T11:12:04.772Z,22.28
2023-05-15T11:14:51.905Z,21.74
2023-05-15T11:17:18.787Z,21.31
2023-05-15T11:19:58.210Z,21.46
2023-05-15T11:22:38.752Z,22.89
2023-05-15T11:25:14.148Z,24.13
2023-05-15T11:27:46.247Z,24.28
2023-05-15T11:30:25.811Z,23.05
2023-05-15T11:33:08.494Z,22.24
2023-05-15T11:35:45.910Z,21.71
2023-05-15T11:38:20.156Z,22.56
2023-05-15T11:40:49.719Z,23.12
2023-05-15T11:43:32.367Z,23.03
2023-05-15T11:46:09.544Z,23.57
2023-05-15T11:48:41.622Z,24.62
2023-05-15T11:51:25.280Z,25.77
2023-05-15T11:53:57.393Z,26.68
2023-05-15T11:56:29.836Z,27.05
2023-05-15T11:58:59.491Z,25.69
2023-05-15T12:01:26.875Z,24.54
2023-05-15T12:03:54.934Z,23.79
2023-05-15T12:06:22.891Z,24.47
2023-05-15T12:08:53.634Z,25.07
2023-05-15T12:11:24.113Z,24.92
2023-05-15T12:13:54.983Z,24.18
2023-05-15T12:16:29.086Z,25.03
2023-05-15T12:18:59.791Z,24.30
2023-05-15T12:21:27.492Z,23.48
2023-05-15T12:26:29.717Z,25.55
2023-05-15T12:28:56.916Z,26.01
2023-05-15T12:31:24.188Z,26.40
2023-05-15T12:33:51.218Z,25.51
2023-05-15T12:36:21.359Z,24.43
2023-05-15T12:38:48.979Z,23.91
2023-05-15T12:41:16.079Z,23.75
2023-05-15T12:43:42.981Z,23.24
2023-05-15T12:46:13.160Z,22.63
2023-05-15T12:48:41.021Z,22.05
2023-05-15T12:51:08.569Z,21.66
2023-05-15T12:53:36.505Z,21.40
2023-05-15T12:56:04.547Z,21.18
2023-05-15T12:58:31.439Z,21.12
2023-05-15T13:00:58.928Z,21.02
2023-05-15T13:03:27.898Z,20.85
2023-05-15T13:05:55.458Z,20.64
2023-05-15T13:08:22.739Z,20.56
2023-05-15T13:10:58.598Z,20.78
2023-05-15T13:13:47.415Z,20.62
2023-05-15T13:16:29.779Z,20.56
2023-05-15T13:18:58.747Z,20.72
2023-05-15T13:21:26.093Z,20.85
2023-05-15T13:23:53.043Z,20.95
2023-05-15T13:26:20.104Z,20.98
2023-05-15T13:28:47.000Z,21.07
2023-05-15T13:31:13.913Z,20.86
2023-05-15T13:33:41.632Z,20.89
2023-05-15T13:36:08.979Z,21.06
2023-05-15T13:38:35.844Z,21.14
2023-05-15T13:41:04.115Z,21.26
2023-05-15T13:43:31.462Z,21.66
2023-05-15T13:45:58.244Z,21.80
2023-05-15T13:48:25.145Z,21.59
2023-05-15T13:50:52.040Z,21.62
2023-05-15T13:53:18.957Z,22.18
2023-05-15T13:55:47.078Z,22.72
2023-05-15T13:58:14.302Z,23.87
2023-05-15T14:00:45.147Z,24.59
2023-05-15T14:03:14.958Z,25.11
2023-05-15T14:05:43.027Z,25.61
2023-05-15T14:08:09.862Z,25.97
2023-05-15T14:10:39.948Z,25.73
2023-05-15T14:13:06.737Z,25.73
2023-05-15T14:15:33.555Z,25.93
2023-05-15T14:18:00.386Z,26.04
2023-05-15T14:20:27.659Z,25.21
2023-05-15T14:22:54.625Z,24.95
2023-05-15T14:25:21.455Z,25.46
2023-05-15T14:27:48.280Z,24.87
2023-05-15T14:30:15.568Z,24.09
2023-05-15T14:32:42.414Z,23.80
2023-05-15T14:35:09.242Z,23.73
2023-05-15T14:37:37.138Z,23.62
2023-05-15T14:40:05.224Z,23.19
2023-05-15T14:42:32.699Z,22.67
2023-05-15T14:44:59.821Z,22.37
2023-05-15T14:47:28.285Z,21.80
2023-05-15T14:49:55.693Z,21.48
2023-05-15T14:52:22.762Z,21.40
2023-05-15T14:55:00.499Z,21.41
2023-05-15T14:57:34.662Z,21.27
2023-05-15T15:00:01.659Z,21.08
2023-05-15T15:02:28.491Z,20.91
2023-05-15T15:04:55.384Z,20.78
2023-05-15T15:07:22.399Z,20.66
2023-05-15T15:09:49.197Z,20.68
2023-05-15T15:12:17.344Z,20.59
2023-05-15T15:14:44.157Z,20.61
2023-05-15T15:17:10.912Z,20.88
2023-05-15T15:19:37.667Z,21.08
2023-05-15T15:22:04.748Z,20.93
2023-05-15T15:24:31.624Z,20.81
2023-05-15T15:26:58.513Z,20.71
2023-05-15T15:29:25.379Z,20.78
2023-05-15T15:31:52.194Z,20.88
2023-05-15T15:34:19.089Z,20.87
2023-05-15T15:36:46.118Z,20.74
2023-05-15T15:39:13.269Z,20.68
2023-05-15T15:41:40.098Z,20.59
2023-05-15T15:44:07.027Z,20.56
2023-05-15T15:46:33.920Z,20.53
2023-05-15T15:49:00.975Z,20.34
2023-05-15T15:51:27.975Z,20.38
2023-05-15T15:53:54.821Z,20.29
2023-05-15T15:56:22.222Z,20.18
2023-05-15T15:58:49.103Z,20.12
2023-05-15T16:01:16.618Z,20.06
2023-05-15T16:03:43.459Z,19.99
2023-05-15T16:06:10.584Z,19.95
2023-05-15T16:08:37.441Z,19.87
2023-05-15T16:11:04.269Z,19.81
2023-05-15T16:13:31.135Z,19.52
2023-05-15T16:15:58.044Z,19.28
2023-05-15T16:18:24.869Z,19.18
2023-05-15T16:20:51.628Z,19.17
2023-05-15T16:23:19.718Z,19.10
2023-05-15T16:25:46.669Z,19.05
2023-05-15T16:28:13.910Z,19.07
2023-05-15T16:30:48.688Z,19.11
2023-05-15T16:33:18.587Z,19.07
2023-05-15T16:35:46.260Z,19.03
2023-05-15T16:38:13.873Z,18.85
2023-05-15T16:40:41.312Z,18.84
2023-05-15T16:43:08.290Z,18.90
2023-05-15T16:45:35.107Z,18.91
2023-05-15T16:48:02.351Z,18.91
2023-05-15T16:50:31.248Z,18.81
2023-05-15T16:52:58.880Z,18.76
2023-05-15T16:55:25.741Z,18.69
2023-05-15T16:57:52.597Z,18.63
2023-05-15T17:00:20.898Z,18.61
2023-05-15T17:02:48.231Z,18.60
2023-05-15T17:05:15.653Z,18.53
2023-05-15T17:07:44.401Z,18.46
2023-05-15T17:10:12.524Z,18.32
2023-05-15T17:12:39.759Z,18.20
2023-05-15T17:15:07.696Z,18.24
2023-05-15T17:17:34.644Z,18.12
2023-05-15T17:20:03.070Z,18.01
2023-05-15T17:22:30.392Z,17.88
2023-05-15T17:24:57.510Z,17.88
2023-05-15T17:27:24.442Z,17.91
2023-05-15T17:29:51.481Z,17.89
2023-05-15T17:32:18.840Z,17.95
2023-05-15T17:34:46.294Z,18.01
2023-05-15T17:37:14.197Z,17.94
2023-05-15T17:39:41.197Z,17.99
2023-05-15T17:42:08.052Z,18.01
2023-05-15T17:44:34.967Z,18.04
2023-05-15T17:47:01.857Z,18.10
2023-05-15T17:49:28.743Z,18.03
2023-05-15T17:51:55.868Z,18.04
2023-05-15T17:54:22.739Z,18.06
2023-05-15T17:56:49.618Z,18.01
2023-05-15T17:59:16.463Z,17.89
2023-05-15T18:01:43.393Z,17.92
2023-05-15T18:04:10.546Z,17.92
2023-05-15T18:06:37.972Z,17.81
2023-05-15T18:09:05.044Z,17.71
2023-05-15T18:11:32.120Z,17.58
2023-05-15T18:13:59.090Z,17.35
2023-05-15T18:16:26.418Z,17.13
2023-05-15T18:18:55.618Z,16.99
2023-05-15T18:21:25.336Z,16.92
2023-05-15T18:23:52.250Z,16.76
2023-05-15T18:26:19.311Z,16.62
2023-05-15T18:28:48.696Z,16.52
2023-05-15T18:31:18.801Z,16.48
2023-05-15T18:33:51.464Z,16.32
2023-05-15T18:36:18.596Z,16.14
2023-05-15T18:38:45.569Z,16.08
2023-05-15T18:41:12.360Z,16.04
2023-05-15T18:43:40.294Z,15.91
2023-05-15T18:46:06.999Z,15.72
2023-05-15T18:48:33.978Z,15.69
2023-05-15T18:51:01.036Z,15.59
2023-05-15T18:53:28.646Z,15.51
2023-05-15T18:55:55.484Z,15.49
2023-05-15T18:58:22.254Z,15.42
2023-05-15T19:00:49.079Z,15.29
2023-05-15T19:03:21.018Z,15.24
2023-05-15T19:05:50.510Z,15.05
2023-05-15T19:08:17.525Z,15.00
2023-05-15T19:10:48.949Z,14.93
2023-05-15T19:13:16.363Z,14.81
2023-05-15T19:15:53.909Z,14.70
2023-05-15T19:18:21.612Z,14.75
2023-05-15T19:20:56.022Z,14.81
2023-05-15T19:23:23.794Z,14.83
2023-05-15T19:25:51.143Z,14.88
2023-05-15T19:28:17.988Z,14.88
2023-05-15T19:30:44.895Z,14.77
2023-05-15T19:33:12.828Z,14.72
2023-05-15T19:35:40.350Z,14.66
2023-05-15T19:38:07.645Z,14.74
2023-05-15T19:40:38.571Z,14.74
2023-05-15T19:43:08.041Z,14.79
2023-05-15T19:45:34.921Z,14.72
2023-05-15T19:48:02.231Z,14.67
2023-05-15T19:50:31.977Z,14.58
2023-05-15T19:53:00.032Z,14.51
2023-05-15T19:55:27.026Z,14.53
2023-05-15T19:57:56.530Z,14.58
2023-05-15T20:00:23.669Z,14.52
2023-05-15T20:02:50.925Z,14.40
2023-05-15T20:05:17.999Z,14.33
2023-05-15T20:07:47.905Z,14.36
2023-05-15T20:10:18.496Z,14.36
2023-05-15T20:12:46.603Z,14.36
2023-05-15T20:15:14.802Z,14.37
2023-05-15T20:17:44.962Z,14.40
2023-05-15T20:20:12.458Z,14.41
2023-05-15T20:22:44.432Z,14.40
2023-05-15T20:25:11.378Z,14.26
2023-05-15T20:27:38.742Z,14.20
2023-05-15T20:30:06.929Z,14.17
2023-05-15T20:32:34.843Z,14.14
2023-05-15T20:35:02.468Z,14.03
2023-05-15T20:37:30.625Z,13.99
2023-05-15T20:39:57.980Z,14.04
2023-05-15T20:42:27.784Z,14.09
2023-05-15T20:44:54.863Z,14.14
2023-05-15T20:47:24.483Z,14.15
2023-05-15T20:49:51.319Z,14.12
2023-05-15T20:52:18.179Z,14.01
2023-05-15T20:54:45.108Z,13.95
2023-05-15T20:57:11.998Z,13.98
2023-05-15T20:59:38.842Z,14.00
2023-05-15T21:02:05.706Z,13.96
2023-05-15T21:04:35.006Z,13.85
2023-05-15T21:07:05.454Z,13.82
2023-05-15T21:09:33.251Z,13.87
2023-05-15T21:12:00.112Z,13.99
2023-05-15T21:14:27.131Z,13.91
2023-05-15T21:16:54.351Z,13.92
2023-05-15T21:19:21.858Z,13.87
2023-05-15T21:21:48.668Z,13.83
2023-05-15T21:24:16.630Z,13.74
2023-05-15T21:26:43.363Z,13.81
2023-05-15T21:29:10.187Z,13.91
2023-05-15T21:31:37.083Z,13.86
2023-05-15T21:34:03.889Z,13.75
2023-05-15T21:36:31.340Z,13.70
2023-05-15T21:38:58.276Z,13.65
2023-05-15T21:41:26.389Z,13.68
2023-05-15T21:43:53.692Z,13.76
2023-05-15T21:46:20.532Z,13.83
2023-05-15T21:48:51.099Z,13.83
2023-05-15T21:51:18.224Z,13.86
2023-05-15T21:53:45.347Z,13.84
2023-05-15T21:56:12.194Z,13.77
2023-05-15T21:58:39.091Z,13.64
2023-05-15T22:01:06.160Z,13.68
2023-05-15T22:03:33.150Z,13.67
2023-05-15T22:06:00.185Z,13.68
2023-05-15T22:08:27.132Z,13.56
2023-05-15T22:10:54.502Z,13.55
2023-05-15T22:13:21.459Z,13.54
2023-05-15T22:15:48.229Z,13.55
2023-05-15T22:18:17.633Z,13.58
2023-05-15T22:20:47.570Z,13.59
2023-05-15T22:23:15.083Z,13.51
2023-05-15T22:25:42.086Z,13.55
2023-05-15T22:28:08.833Z,13.52
2023-05-15T22:30:35.802Z,13.53
2023-05-15T22:33:02.608Z,13.54
2023-05-15T22:35:30.016Z,13.56
2023-05-15T22:37:57.042Z,13.63
2023-05-15T22:40:25.255Z,13.60
2023-05-15T22:42:52.302Z,13.49
2023-05-15T22:45:21.925Z,13.39
2023-05-15T22:47:51.165Z,13.36
2023-05-15T22:50:18.323Z,13.40
2023-05-15T22:52:45.232Z,13.40
2023-05-15T22:55:13.174Z,13.35
2023-05-15T22:57:40.514Z,13.40
2023-05-15T23:00:10.008Z,13.41
2023-05-15T23:02:42.636Z,13.48
2023-05-15T23:05:11.316Z,13.55
2023-05-15T23:07:38.209Z,13.60
2023-05-15T23:10:06.063Z,13.62
2023-05-15T23:12:33.182Z,13.63
2023-05-15T23:14:59.957Z,13.67
2023-05-15T23:17:26.806Z,13.65
2023-05-15T23:19:53.594Z,13.60
2023-05-15T23:22:20.332Z,13.57
2023-05-15T23:24:47.337Z,13.59
2023-05-15T23:27:16.892Z,13.56
2023-05-15T23:29:43.634Z,13.58
2023-05-15T23:32:10.545Z,13.54
2023-05-15T23:34:37.726Z,13.54
2023-05-15T23:37:04.743Z,13.55
2023-05-15T23:39:31.758Z,13.51
2023-05-15T23:41:59.894Z,13.55
2023-05-15T23:44:26.696Z,13.56
2023-05-15T23:46:53.527Z,13.58
2023-05-15T23:49:20.394Z,13.60
2023-05-15T23:51:47.127Z,13.65
2023-05-15T23:54:13.881Z,13.60
2023-05-15T23:56:41.282Z,13.62
2023-05-15T23:59:08.320Z,13.67
